Meteo Giornale » Osservazioni meteo Italia » Resia Pass

ore: 20:55 - Osservazioni Meteo Resia Pass
Lat. 46° 50' N Lon. 10° 30' E Alt. 1800 metri s.l.m.

sereno Europe/Rome

5 °C

Sereno

Temp. 24 Ore

2 °C

12 °C

Nord

5.5 Km/h

Dew point -10 °C

Umidità 32 %

Visibilità  10 Km

Il sole sorge alle ore 06:13

Il sole tramonta alle ore 20:19

Data e Ora Cielo e Fenomeni T °C DP °C Um. % Pres. hPa Vis. km Vento km/h
Oggi h: 20:55 sereno Sereno 5 -10 32 1018 10 N 5.5
Oggi h: 19:55 sereno Sereno 7 -12 24 1017 10 N/NE 7.4
Oggi h: 18:55 sereno Sereno 9 -11 22 1017 10 N/NE 11.1
Oggi h: 17:55 sereno Sereno 10 -12 19 1016 10 N/NE 13
Oggi h: 16:55 sereno Sereno 11 -13 17 1016 10 N/NE 13
Oggi h: 15:55 sereno Sereno 11 -12 18 1016 10 N 13
Oggi h: 14:55 sereno Sereno 12 -12 17 1016 10 N/NE 13
Oggi h: 13:55 sereno Sereno 12 -8 23 1017 10 N 11.1
Oggi h: 12:55 poco_nuvoloso Poco Nuvoloso 11 -6 29 1017 10 N 13
Oggi h: 11:55 poco_nuvoloso Poco Nuvoloso 10 -5 34 1017 10 N/NE 11.1
Oggi h: 10:55 nuvoloso Nuvoloso 7 -3 48 1017 10 N/NE 14.8
Oggi h: 09:55 nuvoloso Nuvoloso 5 -2 60 1017 10 N/NE 16.7
Oggi h: 08:55 nuvoloso Nuvoloso 2 1 93 1016 10 NE 7.4
Oggi h: 07:55 nuvoloso Nuvoloso 2 2 100 1016 10 NE 11.1
Oggi h: 06:55 nuvoloso Nuvoloso 3 2 93 1016 10 NE 11.1
Oggi h: 05:55 nuvoloso Nuvoloso 3 2 93 1016 10 E/NE 11.1
Oggi h: 03:55 sereno Sereno 3 2 93 1016 10 N 3.7
Oggi h: 02:55 sereno Sereno 4 2 86 1016 10 N 5.5
Oggi h: 00:55 nuvoloso Nuvoloso 5 1 75 1018 10 N/NE 9.3
Ieri h: 23:55 sereno Sereno 6 1 70 1017 10 N 7.4
Ieri h: 22:55 nuvoloso Nuvoloso 6 -1 60 1017 10 N 5.5
Ieri h: 21:55 nuvoloso Nuvoloso 7 -2 52 1017 10 N 9.3